createdAt,value
2022-08-09T00:00:06.315Z,99.90
2022-08-09T00:03:56.919Z,99.90
2022-08-09T00:06:33.015Z,99.90
2022-08-09T00:09:37.066Z,99.90
2022-08-09T00:12:41.465Z,99.90
2022-08-09T00:15:58.966Z,99.90
2022-08-09T00:19:09.524Z,99.90
2022-08-09T00:22:13.514Z,99.90
2022-08-09T00:25:23.041Z,99.90
2022-08-09T00:28:36.864Z,99.90
2022-08-09T00:31:59.319Z,99.90
2022-08-09T00:35:04.299Z,99.90
2022-08-09T00:38:08.478Z,99.90
2022-08-09T00:44:13.716Z,99.90
2022-08-09T00:44:37.742Z,99.90
2022-08-09T00:47:40.747Z,99.90
2022-08-09T00:50:44.624Z,99.90
2022-08-09T00:53:55.380Z,99.90
2022-08-09T00:56:58.902Z,99.90
2022-08-09T01:00:21.247Z,99.90
2022-08-09T01:03:32.656Z,99.90
2022-08-09T01:06:53.868Z,99.90
2022-08-09T01:10:04.576Z,99.90
2022-08-09T01:13:16.867Z,99.90
2022-08-09T01:16:25.402Z,99.90
2022-08-09T01:19:42.352Z,99.90
2022-08-09T01:24:01.748Z,99.90
2022-08-09T01:26:55.780Z,99.90
2022-08-09T01:30:02.151Z,99.90
2022-08-09T01:33:09.956Z,99.90
2022-08-09T01:36:15.793Z,99.90
2022-08-09T01:39:23.241Z,99.90
2022-08-09T01:42:29.586Z,99.90
2022-08-09T01:45:33.925Z,99.90
2022-08-09T01:48:39.846Z,99.90
2022-08-09T01:51:53.914Z,99.90
2022-08-09T01:55:00.416Z,99.90
2022-08-09T01:58:06.420Z,99.90
2022-08-09T02:01:11.662Z,99.90
2022-08-09T02:04:22.373Z,99.90
2022-08-09T02:08:38.483Z,99.90
2022-08-09T02:10:53.253Z,99.90
2022-08-09T02:14:07.241Z,99.90
2022-08-09T02:17:54.970Z,99.90
2022-08-09T02:20:39.719Z,99.90
2022-08-09T02:23:47.284Z,99.90
2022-08-09T02:26:58.806Z,99.90
2022-08-09T02:30:05.440Z,99.90
2022-08-09T02:33:14.581Z,99.90
2022-08-09T02:36:26.251Z,99.90
2022-08-09T02:39:42.614Z,99.90
2022-08-09T02:42:51.397Z,99.90
2022-08-09T02:45:58.638Z,99.90
2022-08-09T02:49:05.555Z,99.90
2022-08-09T02:52:13.121Z,99.90
2022-08-09T02:55:21.084Z,99.90
2022-08-09T02:58:32.626Z,99.90
2022-08-09T03:01:43.175Z,99.90
2022-08-09T03:05:06.678Z,99.90
2022-08-09T03:08:11.696Z,99.90
2022-08-09T03:12:04.484Z,99.90
2022-08-09T03:14:41.559Z,99.90
2022-08-09T03:17:48.127Z,99.90
2022-08-09T03:21:03.322Z,99.90
2022-08-09T03:24:09.909Z,99.90
2022-08-09T03:27:14.523Z,99.90
2022-08-09T03:30:29.652Z,99.90
2022-08-09T03:33:53.484Z,99.90
2022-08-09T03:37:02.312Z,99.90
2022-08-09T03:40:14.299Z,99.90
2022-08-09T03:43:21.383Z,99.90
2022-08-09T03:46:29.256Z,99.90
2022-08-09T03:49:37.218Z,99.90
2022-08-09T03:52:42.443Z,99.90
2022-08-09T03:55:46.092Z,99.90
2022-08-09T03:58:50.195Z,99.90
2022-08-09T04:01:55.136Z,99.90
2022-08-09T04:05:06.023Z,99.90
2022-08-09T04:08:10.059Z,99.90
2022-08-09T04:11:13.157Z,99.90
2022-08-09T04:14:52.832Z,99.90
2022-08-09T04:17:42.429Z,99.90
2022-08-09T04:20:48.686Z,99.90
2022-08-09T04:23:53.634Z,99.90
2022-08-09T04:26:57.649Z,99.90
2022-08-09T04:30:00.757Z,99.90
2022-08-09T04:33:05.299Z,99.90
2022-08-09T04:36:12.239Z,99.90
2022-08-09T04:39:15.260Z,99.90
2022-08-09T04:42:22.780Z,99.90
2022-08-09T04:45:30.788Z,99.90
2022-08-09T04:48:34.023Z,99.90
2022-08-09T04:51:38.582Z,99.90
2022-08-09T04:54:41.569Z,99.90
2022-08-09T04:57:54.294Z,99.90
2022-08-09T05:01:04.810Z,99.90
2022-08-09T05:04:19.550Z,99.90
2022-08-09T05:07:24.411Z,99.90
2022-08-09T05:10:27.576Z,99.90
2022-08-09T05:13:33.241Z,99.90
2022-08-09T05:16:58.484Z,99.90
2022-08-09T05:19:59.996Z,99.90
2022-08-09T05:23:53.964Z,99.90
2022-08-09T05:26:37.048Z,99.90
2022-08-09T05:29:49.131Z,99.90
2022-08-09T05:32:53.971Z,99.90
2022-08-09T05:35:57.089Z,99.90
2022-08-09T05:39:01.606Z,99.90
2022-08-09T05:42:08.251Z,99.90
2022-08-09T05:45:14.608Z,99.90
2022-08-09T05:48:17.921Z,99.90
2022-08-09T05:51:42.860Z,99.90
2022-08-09T05:54:49.120Z,99.90
2022-08-09T05:57:56.730Z,99.90
2022-08-09T06:01:01.432Z,99.90
2022-08-09T06:04:05.544Z,99.90
2022-08-09T06:07:09.447Z,99.90
2022-08-09T06:10:15.908Z,99.90
2022-08-09T06:13:21.300Z,99.90
2022-08-09T06:16:24.450Z,99.90
2022-08-09T06:19:27.760Z,99.90
2022-08-09T06:22:30.935Z,99.90
2022-08-09T06:25:36.540Z,99.90
2022-08-09T06:28:43.295Z,99.90
2022-08-09T06:32:17.183Z,99.90
2022-08-09T06:35:11.091Z,99.90
2022-08-09T06:38:16.015Z,99.90
2022-08-09T06:41:20.584Z,99.90
2022-08-09T06:44:23.889Z,99.90
2022-08-09T06:47:39.628Z,99.90
2022-08-09T06:50:45.134Z,99.90
2022-08-09T06:53:49.855Z,99.90
2022-08-09T06:56:54.447Z,99.90
2022-08-09T07:00:55.528Z,99.90
2022-08-09T07:03:27.637Z,99.90
2022-08-09T07:06:31.914Z,99.90
2022-08-09T07:09:57.253Z,99.90
2022-08-09T07:12:59.773Z,99.90
2022-08-09T07:16:43.362Z,99.90
2022-08-09T07:19:26.560Z,99.90
2022-08-09T07:22:34.627Z,99.90
2022-08-09T07:25:38.852Z,99.90
2022-08-09T07:29:07.873Z,99.90
2022-08-09T07:32:10.177Z,99.90
2022-08-09T07:35:14.820Z,99.90
2022-08-09T07:38:17.931Z,99.90
2022-08-09T07:41:22.387Z,99.90
2022-08-09T07:44:50.635Z,99.90
2022-08-09T07:48:01.607Z,99.90
2022-08-09T07:52:02.912Z,99.90
2022-08-09T07:54:31.689Z,99.90
2022-08-09T07:57:36.019Z,99.90
2022-08-09T08:00:58.925Z,99.90
2022-08-09T08:04:04.323Z,99.90
2022-08-09T08:08:06.136Z,99.90
2022-08-09T08:10:37.660Z,99.90
2022-08-09T08:13:56.977Z,99.90
2022-08-09T08:17:09.079Z,99.90
2022-08-09T08:20:16.110Z,99.90
2022-08-09T08:23:20.861Z,99.90
2022-08-09T08:26:42.105Z,99.90
2022-08-09T08:29:54.759Z,99.90
2022-08-09T08:32:59.143Z,99.90
2022-08-09T08:36:03.697Z,99.90
2022-08-09T08:39:08.546Z,99.90
2022-08-09T08:42:14.336Z,99.90
2022-08-09T08:45:37.706Z,99.90
2022-08-09T08:48:51.379Z,99.90
2022-08-09T08:52:00.248Z,99.90
2022-08-09T08:55:06.207Z,99.90
2022-08-09T08:58:11.334Z,99.90
2022-08-09T09:01:20.697Z,99.90
2022-08-09T09:04:31.101Z,99.90
2022-08-09T09:07:42.757Z,99.90
2022-08-09T09:10:48.580Z,99.90
2022-08-09T09:13:58.325Z,99.90
2022-08-09T09:17:02.763Z,99.90
2022-08-09T09:20:15.539Z,99.90
2022-08-09T09:23:20.543Z,99.90
2022-08-09T09:26:43.634Z,99.90
2022-08-09T09:33:17.229Z,99.90
2022-08-09T09:36:22.211Z,99.90
2022-08-09T09:39:55.164Z,99.90
2022-08-09T09:42:57.080Z,99.90
2022-08-09T09:49:50.235Z,99.90
2022-08-09T09:52:54.728Z,99.90
2022-08-09T09:56:05.295Z,99.90
2022-08-09T09:59:09.550Z,99.90
2022-08-09T10:02:13.534Z,99.90
2022-08-09T10:05:21.640Z,99.90
2022-08-09T10:08:31.971Z,99.90
2022-08-09T10:11:53.955Z,99.90
2022-08-09T10:15:07.458Z,99.90
2022-08-09T10:18:20.415Z,99.90
2022-08-09T10:21:24.980Z,99.90
2022-08-09T10:24:35.990Z,99.90
2022-08-09T10:27:45.098Z,99.90
2022-08-09T10:34:33.438Z,99.90
2022-08-09T10:37:39.163Z,99.90
2022-08-09T10:40:50.122Z,99.90
2022-08-09T10:43:59.844Z,99.90
2022-08-09T10:48:13.131Z,99.90
2022-08-09T10:51:12.004Z,99.90
2022-08-09T10:54:16.973Z,99.90
2022-08-09T10:57:23.237Z,99.90
2022-08-09T11:00:41.681Z,99.90
2022-08-09T11:04:28.392Z,99.90
2022-08-09T11:07:55.177Z,99.90
2022-08-09T11:11:00.636Z,99.90
2022-08-09T11:14:33.937Z,99.90
2022-08-09T11:17:48.071Z,99.90
2022-08-09T11:20:57.021Z,99.90
2022-08-09T11:24:01.004Z,99.90
2022-08-09T11:28:02.490Z,99.90
2022-08-09T11:30:59.484Z,99.90
2022-08-09T11:34:07.604Z,99.90
2022-08-09T11:37:18.421Z,99.90
2022-08-09T11:40:30.467Z,99.90
2022-08-09T11:43:43.816Z,99.90
2022-08-09T11:46:57.950Z,99.90
2022-08-09T11:50:56.023Z,99.90
2022-08-09T11:53:58.364Z,99.90
2022-08-09T11:56:51.240Z,99.90
2022-08-09T11:59:55.625Z,99.90
2022-08-09T12:03:31.899Z,99.90
2022-08-09T12:06:32.886Z,99.90
2022-08-09T12:09:38.312Z,99.90
2022-08-09T12:12:48.981Z,99.90
2022-08-09T12:16:01.921Z,99.90
2022-08-09T12:19:08.628Z,99.90
2022-08-09T12:22:12.852Z,99.90
2022-08-09T12:25:36.181Z,99.90
2022-08-09T12:29:13.734Z,99.90
2022-08-09T12:32:12.849Z,99.50
2022-08-09T12:35:21.713Z,98.10
2022-08-09T12:38:29.613Z,97.40
2022-08-09T12:41:41.093Z,97.10
2022-08-09T12:44:52.278Z,97.40
2022-08-09T12:47:58.954Z,98.20
2022-08-09T12:51:03.930Z,98.10
2022-08-09T12:54:08.487Z,98.20
2022-08-09T12:57:11.524Z,97.20
2022-08-09T13:00:18.611Z,93.40
2022-08-09T13:03:53.271Z,91.60
2022-08-09T13:06:54.121Z,87.70
2022-08-09T13:10:03.212Z,85.70
2022-08-09T13:13:09.585Z,85.00
2022-08-09T13:16:15.760Z,81.30
2022-08-09T13:20:07.600Z,77.80
2022-08-09T13:23:05.307Z,76.60
2022-08-09T13:26:31.752Z,75.50
2022-08-09T13:30:02.716Z,77.40
2022-08-09T13:33:03.109Z,80.00
2022-08-09T13:36:37.826Z,82.30
2022-08-09T13:41:17.621Z,85.00
2022-08-09T13:42:54.674Z,86.70
2022-08-09T13:46:42.959Z,89.30
2022-08-09T13:49:20.802Z,90.40
2022-08-09T13:52:25.222Z,91.10
2022-08-09T13:55:28.890Z,91.40
2022-08-09T13:58:33.554Z,91.70
2022-08-09T14:02:01.129Z,92.30
2022-08-09T14:05:00.596Z,92.00
2022-08-09T14:08:06.617Z,92.90
2022-08-09T14:11:16.151Z,92.40
2022-08-09T14:14:26.257Z,91.80
2022-08-09T14:17:32.655Z,92.00
2022-08-09T14:20:53.618Z,92.30
2022-08-09T14:24:01.188Z,91.90
2022-08-09T14:27:19.791Z,91.70
2022-08-09T14:30:36.688Z,91.80
2022-08-09T14:33:44.569Z,92.20
2022-08-09T14:36:55.962Z,92.40
2022-08-09T14:40:00.422Z,92.80
2022-08-09T14:43:03.549Z,92.80
2022-08-09T14:46:59.034Z,93.70
2022-08-09T14:49:29.681Z,93.50
2022-08-09T14:52:38.218Z,93.40
2022-08-09T14:55:47.771Z,93.50
2022-08-09T14:58:56.212Z,94.30
2022-08-09T15:01:59.434Z,93.70
2022-08-09T15:05:03.783Z,93.50
2022-08-09T15:08:10.257Z,93.30
2022-08-09T15:11:14.987Z,93.40
2022-08-09T15:14:19.572Z,94.10
2022-08-09T15:17:22.605Z,94.00
2022-08-09T15:22:01.100Z,93.80
2022-08-09T15:24:01.275Z,94.10
2022-08-09T15:27:13.876Z,94.00
2022-08-09T15:30:56.814Z,94.70
2022-08-09T15:34:33.037Z,95.30
2022-08-09T15:37:37.135Z,95.40
2022-08-09T15:40:44.212Z,95.60
2022-08-09T15:43:48.711Z,95.90
2022-08-09T15:46:51.690Z,96.20
2022-08-09T15:50:04.357Z,96.40
2022-08-09T15:53:32.645Z,96.80
2022-08-09T15:56:31.376Z,97.10
2022-08-09T15:59:36.929Z,97.50
2022-08-09T16:02:40.573Z,97.60
2022-08-09T16:05:53.774Z,97.80
2022-08-09T16:09:03.238Z,96.90
2022-08-09T16:12:11.208Z,96.80
2022-08-09T16:16:11.206Z,96.40
2022-08-09T16:18:44.900Z,96.10
2022-08-09T16:21:53.728Z,96.20
2022-08-09T16:24:59.496Z,96.30
2022-08-09T16:28:02.772Z,96.30
2022-08-09T16:31:15.841Z,95.90
2022-08-09T16:34:19.382Z,96.10
2022-08-09T16:37:53.094Z,96.40
2022-08-09T16:40:49.866Z,96.60
2022-08-09T16:43:52.977Z,96.90
2022-08-09T16:47:04.143Z,96.30
2022-08-09T16:50:31.405Z,96.90
2022-08-09T16:53:37.299Z,96.80
2022-08-09T16:56:48.865Z,97.40
2022-08-09T16:59:57.549Z,99.00
2022-08-09T17:03:02.398Z,99.90
2022-08-09T17:06:31.398Z,99.90
2022-08-09T17:09:45.708Z,99.90
2022-08-09T17:12:50.095Z,99.90
2022-08-09T17:15:59.802Z,99.90
2022-08-09T17:19:05.142Z,99.90
2022-08-09T17:22:08.721Z,99.90
2022-08-09T17:25:13.804Z,99.90
2022-08-09T17:28:16.847Z,99.90
2022-08-09T17:31:21.207Z,99.90
2022-08-09T17:35:07.769Z,99.90
2022-08-09T17:38:11.659Z,99.90
2022-08-09T17:41:12.919Z,99.90
2022-08-09T17:44:42.169Z,99.90
2022-08-09T17:47:49.566Z,99.90
2022-08-09T17:51:09.750Z,99.90
2022-08-09T17:54:25.291Z,99.90
2022-08-09T17:58:03.085Z,99.90
2022-08-09T18:00:58.448Z,99.90
2022-08-09T18:04:01.744Z,99.90
2022-08-09T18:07:07.813Z,99.90
2022-08-09T18:10:11.229Z,99.90
2022-08-09T18:13:39.362Z,99.90
2022-08-09T18:16:39.379Z,99.90
2022-08-09T18:21:00.102Z,99.90
2022-08-09T18:24:09.675Z,99.90
2022-08-09T18:26:46.267Z,99.90
2022-08-09T18:30:37.644Z,99.90
2022-08-09T18:33:15.066Z,99.90
2022-08-09T18:36:25.950Z,99.90
2022-08-09T18:39:39.490Z,99.90
2022-08-09T18:42:46.632Z,99.90
2022-08-09T18:46:46.807Z,99.90
2022-08-09T18:49:12.730Z,99.90
2022-08-09T18:52:18.567Z,99.90
2022-08-09T18:55:45.720Z,99.90
2022-08-09T18:58:55.296Z,99.90
2022-08-09T19:01:58.880Z,99.90
2022-08-09T19:05:20.301Z,99.90
2022-08-09T19:08:29.611Z,99.90
2022-08-09T19:11:35.190Z,99.90
2022-08-09T19:14:43.388Z,99.90
2022-08-09T19:17:54.515Z,99.90
2022-08-09T19:21:00.595Z,99.90
2022-08-09T19:24:37.318Z,99.90
2022-08-09T19:27:28.934Z,99.90
2022-08-09T19:30:32.585Z,99.90
2022-08-09T19:33:36.135Z,99.90
2022-08-09T19:36:39.147Z,99.90
2022-08-09T19:40:03.892Z,99.90
2022-08-09T19:43:10.221Z,99.90
2022-08-09T19:46:35.015Z,99.90
2022-08-09T19:50:05.272Z,99.90
2022-08-09T19:53:04.513Z,99.90
2022-08-09T19:56:08.519Z,99.90
2022-08-09T19:59:58.588Z,99.90
2022-08-09T20:04:26.307Z,99.90
2022-08-09T20:06:22.601Z,99.90
2022-08-09T20:09:44.390Z,99.90
2022-08-09T20:12:48.991Z,99.90
2022-08-09T20:16:33.459Z,99.90
2022-08-09T20:19:48.490Z,99.90
2022-08-09T20:22:42.908Z,99.90
2022-08-09T20:25:52.090Z,99.90
2022-08-09T20:28:56.260Z,99.90
2022-08-09T20:32:29.055Z,99.90
2022-08-09T20:35:24.349Z,99.90
2022-08-09T20:38:51.668Z,99.90
2022-08-09T20:41:50.392Z,99.90
2022-08-09T20:45:28.173Z,99.90
2022-08-09T20:48:21.083Z,99.90
2022-08-09T20:51:25.807Z,99.90
2022-08-09T20:54:29.006Z,99.90
2022-08-09T20:58:08.307Z,99.90
2022-08-09T21:01:13.801Z,99.90
2022-08-09T21:05:52.811Z,99.90
2022-08-09T21:07:44.434Z,99.90
2022-08-09T21:10:53.409Z,99.90
2022-08-09T21:13:59.635Z,99.90
2022-08-09T21:18:11.623Z,99.90
2022-08-09T21:20:30.673Z,99.90
2022-08-09T21:23:51.026Z,99.90
2022-08-09T21:26:54.709Z,99.90
2022-08-09T21:29:58.088Z,99.90
2022-08-09T21:33:02.632Z,99.90
2022-08-09T21:36:11.402Z,99.90
2022-08-09T21:39:21.799Z,99.90
2022-08-09T21:42:31.639Z,99.90
2022-08-09T21:45:39.183Z,99.90
2022-08-09T21:48:42.760Z,99.90
2022-08-09T21:51:53.761Z,99.90
2022-08-09T21:55:03.918Z,99.90
2022-08-09T21:58:07.837Z,99.90
2022-08-09T22:01:26.440Z,99.90
2022-08-09T22:04:57.359Z,99.90
2022-08-09T22:08:03.297Z,99.90
2022-08-09T22:12:05.770Z,99.90
2022-08-09T22:14:29.303Z,99.90
2022-08-09T22:17:35.556Z,99.90
2022-08-09T22:20:52.459Z,99.90
2022-08-09T22:24:01.908Z,99.90
2022-08-09T22:27:05.323Z,99.90
2022-08-09T22:30:09.946Z,99.90
2022-08-09T22:33:13.486Z,99.90
2022-08-09T22:36:20.498Z,99.90
2022-08-09T22:39:56.135Z,99.90
2022-08-09T22:42:48.206Z,99.90
2022-08-09T22:48:14.950Z,99.90
2022-08-09T22:49:14.603Z,99.90
2022-08-09T22:52:18.160Z,99.90
2022-08-09T22:55:24.446Z,99.90
2022-08-09T22:58:32.612Z,99.90
2022-08-09T23:01:38.774Z,99.90
2022-08-09T23:04:42.410Z,99.90
2022-08-09T23:08:22.635Z,99.90
2022-08-09T23:11:27.425Z,99.90
2022-08-09T23:14:41.642Z,99.90
2022-08-09T23:17:45.466Z,99.90
2022-08-09T23:20:48.471Z,99.90
2022-08-09T23:23:57.775Z,99.90
2022-08-09T23:27:10.483Z,99.90
2022-08-09T23:30:13.828Z,99.90
2022-08-09T23:33:16.842Z,99.90
2022-08-09T23:36:19.816Z,99.90
2022-08-09T23:39:22.944Z,99.90
2022-08-09T23:42:27.481Z,99.90
2022-08-09T23:45:36.586Z,99.90
2022-08-09T23:48:41.388Z,99.90
2022-08-09T23:51:44.427Z,99.90
2022-08-09T23:54:47.463Z,99.90
2022-08-09T23:58:07.982Z,99.90
